Figridge, Texas
Current Conditions -  °F | °C
As of 2:55 PM on Sunday 23 Nov 2014 (Local Time) from KBMT Reporting Station
Clear Clear  
Wind Chill: 75°   Ceiling: Unl
Heat Index: 75°   Visibility: 10mi
Dew Point: 57°   Wind: 12mph
Humidity: 54%   Direction: 230°SW
Pressure: 29.56"   Gusts: 17mph
Location:  29.7905°N, 94.3844°W
Report Text: KBMT 232055Z AUTO 23010G15KT 10SM CLR 24/14 A2956 RMK AO2 T02380139
Loading
Personal Weather Stations






























Interactive Weather Map New forecast layout! Learn more

10-Day Weather Forecast

Advertisements
Track Severe Weather on mobile